This is the latest recevied weather packets stored in our database for station/object EA1RCG-11. If no packets are shown the sender has not sent any weather packets the latest 10 day(s).
| Time | Temp. | Humidity | Pressure | Rain* | Wind** | Luminosity | Snow |
|---|---|---|---|---|---|---|---|
| 1787828843 | 29.44° C | 47% | 972.2 hPa | - | - | - | - |
| 1787827043 | 30.56° C | 46% | 972.6 hPa | - | - | - | - |
| 1787825243 | 27.22° C | 51% | 972.9 hPa | - | - | - | - |
| 1787823442 | 31.67° C | 47% | 972.6 hPa | - | - | - | - |
| 1787821642 | 50.56° C | 28% | 972.7 hPa | - | - | - | - |
| 1787819842 | 45.56° C | 31% | 973 hPa | - | - | - | - |
| 1787818042 | 36.11° C | 40% | 973 hPa | - | - | - | - |
| 1787816242 | 41.67° C | 33% | 973.6 hPa | - | - | - | - |
| 1787814442 | 30° C | 41% | 973.9 hPa | - | - | - | - |
| 1787812642 | 16.11° C | 60% | 973.8 hPa | - | - | - | - |
| 1787810842 | 16.11° C | 60% | 973.7 hPa | - | - | - | - |
| 1787809042 | 15.56° C | 61% | 973.4 hPa | - | - | - | - |
| 1787807242 | 15.56° C | 61% | 973.3 hPa | - | - | - | - |
| 1787805441 | 15.56° C | 62% | 973.1 hPa | - | - | - | - |
| 1787803641 | 16.11° C | 62% | 973.4 hPa | - | - | - | - |
| 1787801841 | 16.67° C | 61% | 973.4 hPa | - | - | - | - |
| 1787800041 | 17.22° C | 60% | 973.5 hPa | - | - | - | - |
| 1787798241 | 17.22° C | 60% | 973.6 hPa | - | - | - | - |
| 1787796441 | 17.22° C | 60% | 973.5 hPa | - | - | - | - |
| 1787794641 | 17.78° C | 60% | 973.4 hPa | - | - | - | - |
| 1787792841 | 17.78° C | 60% | 973.5 hPa | - | - | - | - |
| 1787791041 | 17.78° C | 60% | 973.6 hPa | - | - | - | - |
| 1787789241 | 17.78° C | 61% | 973.6 hPa | - | - | - | - |
| 1787787440 | 18.89° C | 59% | 973.5 hPa | - | - | - | - |
| 1787785640 | 18.89° C | 59% | 973.9 hPa | - | - | - | - |
* Rain since midnight (hover to see other rain measurements)
** Current wind speed in m/s (hover to see current wind gust speed)